Time;durP1;ratioP1;P1;durP2;ratioP2;P2;SDS_P1;SDS_P2;PMS_P1;PMS_P2;Temp;Humidity;BMP_temperature;BMP_pressure;BME280_temperature;BME280_humidity;BME280_pressure;Samples;Min_cycle;Max_cycle;Signal;HPM_P1;HPM_P2
2022/08/30 00:02:05;;;;;;;2.13;1.60;;;16.00;97.30;;;;;;4973535;28;20214;-89
2022/08/30 00:04:31;;;;;;;1.63;1.53;;;16.00;97.30;;;;;;4986627;28;20453;-88
2022/08/30 00:06:56;;;;;;;1.90;1.87;;;16.00;97.30;;;;;;5004967;28;20223;-88
2022/08/30 00:09:22;;;;;;;2.03;1.80;;;16.10;97.30;;;;;;4972398;28;20622;-88
2022/08/30 00:11:50;;;;;;;2.50;2.17;;;16.00;97.30;;;;;;5004901;28;20912;-87
2022/08/30 00:14:16;;;;;;;1.93;1.80;;;16.00;97.30;;;;;;4971955;28;20237;-89
2022/08/30 00:16:42;;;;;;;1.80;1.67;;;16.00;97.30;;;;;;5004646;28;20425;-88
2022/08/30 00:19:07;;;;;;;2.90;2.27;;;16.00;97.30;;;;;;4974475;28;20218;-88
2022/08/30 00:21:33;;;;;;;1.73;1.70;;;16.00;97.30;;;;;;4973602;28;20206;-88
2022/08/30 00:23:58;;;;;;;4.13;2.00;;;15.90;97.30;;;;;;4973199;28;20199;-88
2022/08/30 00:26:24;;;;;;;1.30;1.20;;;15.90;97.30;;;;;;4972545;28;20237;-88
2022/08/30 00:28:49;;;;;;;2.60;1.93;;;15.90;97.30;;;;;;4985007;28;20215;-88
2022/08/30 00:31:15;;;;;;;1.80;1.70;;;15.90;97.30;;;;;;4973547;28;20677;-87
2022/08/30 00:33:40;;;;;;;2.93;2.63;;;15.80;97.30;;;;;;4973965;28;20558;-88
2022/08/30 00:36:06;;;;;;;3.17;2.73;;;15.80;97.30;;;;;;5004570;28;20183;-88
2022/08/30 00:38:31;;;;;;;3.23;2.87;;;15.80;97.30;;;;;;5004231;28;20190;-87
2022/08/30 00:40:58;;;;;;;3.83;2.33;;;15.70;97.30;;;;;;4971921;28;20210;-88
2022/08/30 00:43:26;;;;;;;4.40;3.60;;;15.70;97.30;;;;;;4972069;28;20189;-87
2022/08/30 00:45:52;;;;;;;1.77;1.70;;;15.70;97.30;;;;;;4981421;28;20437;-88
2022/08/30 00:48:18;;;;;;;2.40;1.83;;;15.60;97.30;;;;;;4973151;28;20426;-88
2022/08/30 00:51:04;;;;;;;4.00;1.80;;;15.60;97.30;;;;;;4973638;28;20195;-89
2022/08/30 00:53:42;;;;;;;4.67;3.00;;;15.60;97.30;;;;;;4996711;28;20438;-86
2022/08/30 00:56:09;;;;;;;20.37;2.60;;;15.60;97.30;;;;;;4968980;28;20429;-88
2022/08/30 00:58:41;;;;;;;4.60;2.20;;;15.60;97.30;;;;;;4971166;28;20426;-87
2022/08/30 01:01:07;;;;;;;1.53;1.53;;;15.60;97.30;;;;;;4971239;28;20882;-88
2022/08/30 01:03:35;;;;;;;3.20;2.17;;;15.60;97.30;;;;;;4993549;28;20462;-88
2022/08/30 01:06:03;;;;;;;3.87;2.13;;;15.60;97.30;;;;;;4969674;28;20430;-88
2022/08/30 01:08:29;;;;;;;1.77;1.70;;;15.50;97.30;;;;;;5004709;28;20433;-88
2022/08/30 01:10:56;;;;;;;1.93;1.70;;;15.50;97.30;;;;;;4971614;28;20442;-87
2022/08/30 01:13:23;;;;;;;2.50;1.97;;;15.50;97.30;;;;;;4972376;28;20551;-88
2022/08/30 01:15:50;;;;;;;4.67;3.00;;;15.50;97.30;;;;;;4975935;28;20454;-88
2022/08/30 01:18:17;;;;;;;4.97;2.60;;;15.40;97.30;;;;;;5004214;28;20430;-88
2022/08/30 01:20:51;;;;;;;3.30;2.53;;;15.40;97.30;;;;;;4977311;28;20503;-88
2022/08/30 01:23:18;;;;;;;1.57;1.50;;;15.40;97.30;;;;;;4987618;28;21023;-88
2022/08/30 01:25:46;;;;;;;2.03;1.80;;;15.30;97.30;;;;;;4972661;28;20477;-86
2022/08/30 01:28:20;;;;;;;2.90;2.37;;;15.30;97.30;;;;;;4974825;28;20433;-88
2022/08/30 01:30:46;;;;;;;2.80;2.10;;;15.30;97.30;;;;;;4975627;28;20577;-88
2022/08/30 01:33:12;;;;;;;2.10;1.80;;;15.30;97.30;;;;;;4971224;28;20995;-89
2022/08/30 01:35:52;;;;;;;2.40;2.30;;;15.30;97.30;;;;;;4972218;28;20212;-88
2022/08/30 01:38:21;;;;;;;3.37;2.87;;;15.30;97.30;;;;;;5003901;28;20186;-88
2022/08/30 01:40:47;;;;;;;3.00;2.43;;;15.30;97.30;;;;;;4961968;28;20430;-88
2022/08/30 01:43:14;;;;;;;3.80;3.37;;;15.30;97.30;;;;;;4975221;28;20461;-87
2022/08/30 01:45:40;;;;;;;3.60;2.83;;;15.20;97.30;;;;;;4962028;28;20426;-88
2022/08/30 01:48:06;;;;;;;2.70;1.77;;;15.20;97.30;;;;;;5003233;28;20936;-88
2022/08/30 01:50:32;;;;;;;64.93;3.00;;;15.20;97.30;;;;;;4971616;28;20420;-88
2022/08/30 01:52:57;;;;;;;2.33;1.70;;;15.20;97.30;;;;;;4987396;28;20183;-88
2022/08/30 01:55:23;;;;;;;3.43;2.13;;;15.20;97.30;;;;;;4980734;28;20197;-88
2022/08/30 01:57:48;;;;;;;7.83;2.83;;;15.20;97.30;;;;;;5018060;28;20190;-88
2022/08/30 02:00:15;;;;;;;1.73;1.47;;;15.20;97.30;;;;;;4986133;28;20245;-88
2022/08/30 02:02:40;;;;;;;2.80;1.83;;;15.20;97.30;;;;;;4988022;28;20218;-90
2022/08/30 02:05:06;;;;;;;2.37;2.17;;;15.20;97.30;;;;;;5019506;28;20450;-89
2022/08/30 02:07:32;;;;;;;6.93;3.27;;;15.10;97.30;;;;;;4989324;28;20315;-89
2022/08/30 02:09:57;;;;;;;3.30;2.07;;;15.10;97.30;;;;;;4987571;28;20417;-88
2022/08/30 02:12:23;;;;;;;3.53;2.53;;;15.00;97.30;;;;;;4988362;28;20205;-89
2022/08/30 02:14:48;;;;;;;5.43;1.80;;;15.00;97.30;;;;;;4988028;28;20190;-89
2022/08/30 02:17:15;;;;;;;3.10;2.90;;;15.00;97.30;;;;;;4988069;28;20182;-87
2022/08/30 02:19:41;;;;;;;2.43;2.33;;;14.90;97.30;;;;;;4995846;28;20178;-89
2022/08/30 02:22:07;;;;;;;2.90;2.00;;;14.90;97.30;;;;;;5017653;28;20635;-88
2022/08/30 02:24:33;;;;;;;4.07;2.30;;;14.90;97.30;;;;;;4975861;28;20457;-88
2022/08/30 02:26:58;;;;;;;2.70;2.30;;;14.80;97.30;;;;;;4984846;28;20437;-88
2022/08/30 02:29:26;;;;;;;4.50;2.53;;;14.80;97.30;;;;;;4969511;28;20186;-88
2022/08/30 02:31:51;;;;;;;1.83;1.80;;;14.80;97.30;;;;;;4971137;28;20203;-89
2022/08/30 02:34:17;;;;;;;2.90;2.50;;;14.70;97.30;;;;;;5002933;28;20999;-88
2022/08/30 02:36:43;;;;;;;3.53;1.90;;;14.70;97.30;;;;;;4971195;28;20186;-88
2022/08/30 02:39:11;;;;;;;1.93;1.83;;;14.70;97.30;;;;;;4977043;28;20434;-88
2022/08/30 02:41:37;;;;;;;1.33;1.23;;;14.70;97.30;;;;;;5003083;28;20441;-88
2022/08/30 02:44:07;;;;;;;6.00;2.67;;;14.70;97.30;;;;;;5002060;28;20461;-87
2022/08/30 02:46:36;;;;;;;5.43;4.20;;;14.70;97.30;;;;;;4974888;28;20516;-88
2022/08/30 02:49:02;;;;;;;1.70;1.60;;;14.70;97.30;;;;;;4970745;28;20433;-88
2022/08/30 02:51:27;;;;;;;3.87;3.67;;;14.60;97.30;;;;;;4970351;28;20841;-86
2022/08/30 02:53:53;;;;;;;5.67;2.37;;;14.60;97.30;;;;;;4999864;28;20189;-86
2022/08/30 02:56:18;;;;;;;2.67;2.37;;;14.60;97.30;;;;;;4971588;28;20245;-87
2022/08/30 02:58:44;;;;;;;48.97;2.67;;;14.60;97.30;;;;;;4970097;28;20190;-88
2022/08/30 03:01:12;;;;;;;1.57;1.47;;;14.50;97.30;;;;;;4969586;28;20293;-88
2022/08/30 03:03:39;;;;;;;6.23;2.70;;;14.50;97.30;;;;;;4969901;28;20598;-88
2022/08/30 03:06:05;;;;;;;2.60;1.93;;;14.50;97.30;;;;;;5002376;28;20414;-88
2022/08/30 03:08:31;;;;;;;8.10;3.13;;;14.50;97.30;;;;;;4971557;28;20948;-88
2022/08/30 03:10:56;;;;;;;3.63;2.43;;;14.40;97.30;;;;;;4967228;28;20216;-88
2022/08/30 03:13:23;;;;;;;3.80;3.40;;;14.40;97.30;;;;;;4970162;28;20924;-89
2022/08/30 03:15:49;;;;;;;4.00;2.30;;;14.40;97.30;;;;;;4970093;28;20202;-88
2022/08/30 03:18:16;;;;;;;4.47;2.80;;;14.30;97.30;;;;;;4970799;28;20880;-88
2022/08/30 03:20:41;;;;;;;3.67;2.23;;;14.30;97.30;;;;;;4971434;28;20438;-88
2022/08/30 03:23:07;;;;;;;4.73;3.13;;;14.30;97.30;;;;;;4970393;28;20468;-87
2022/08/30 03:25:33;;;;;;;2.40;2.17;;;14.20;97.30;;;;;;4970388;28;20211;-88
2022/08/30 03:27:58;;;;;;;4.43;3.13;;;14.20;97.30;;;;;;4971741;28;20265;-88
2022/08/30 03:30:24;;;;;;;2.63;2.40;;;14.20;97.30;;;;;;4986481;28;20190;-88
2022/08/30 03:32:50;;;;;;;4.53;2.33;;;14.20;97.30;;;;;;4970042;28;20222;-88
2022/08/30 03:35:16;;;;;;;6.50;1.77;;;14.20;97.30;;;;;;5002493;28;20178;-87
2022/08/30 03:37:42;;;;;;;2.23;2.10;;;14.10;97.30;;;;;;4979632;28;20244;-88
2022/08/30 03:40:09;;;;;;;2.80;2.07;;;14.10;97.30;;;;;;4975347;28;20422;-88
2022/08/30 03:42:35;;;;;;;2.73;1.97;;;14.10;97.30;;;;;;5006866;28;20217;-88
2022/08/30 03:45:02;;;;;;;2.20;2.00;;;14.10;97.30;;;;;;4973965;28;20453;-88
2022/08/30 03:47:28;;;;;;;2.67;2.47;;;14.10;97.30;;;;;;4975154;28;20174;-86
2022/08/30 03:49:54;;;;;;;2.40;1.67;;;14.10;97.30;;;;;;4982769;28;20956;-87
2022/08/30 03:52:20;;;;;;;1.83;1.50;;;14.10;97.30;;;;;;4987075;28;20242;-87
2022/08/30 03:54:45;;;;;;;3.77;2.47;;;14.00;97.30;;;;;;4975367;28;20422;-88
2022/08/30 03:57:11;;;;;;;3.10;2.27;;;14.10;97.30;;;;;;4975108;28;20333;-88
2022/08/30 03:59:36;;;;;;;6.40;4.80;;;14.10;97.30;;;;;;4974796;28;20573;-88
2022/08/30 04:02:02;;;;;;;2.40;2.20;;;14.00;97.30;;;;;;5006265;28;20209;-88
2022/08/30 04:04:27;;;;;;;2.13;2.00;;;14.00;97.30;;;;;;5017112;28;20198;-87
2022/08/30 04:06:54;;;;;;;7.17;3.63;;;14.00;97.30;;;;;;4974037;28;20558;-88
2022/08/30 04:09:19;;;;;;;3.97;2.40;;;14.00;97.30;;;;;;4974360;28;20197;-88
2022/08/30 04:11:45;;;;;;;3.13;2.93;;;13.90;97.30;;;;;;4978232;28;20446;-88
2022/08/30 04:14:11;;;;;;;3.87;2.97;;;13.90;97.30;;;;;;5005953;28;20195;-88
2022/08/30 04:16:36;;;;;;;3.30;2.00;;;13.90;97.30;;;;;;4975486;28;20292;-89
2022/08/30 04:19:02;;;;;;;2.20;2.00;;;13.90;97.30;;;;;;5005670;28;20183;-87
2022/08/30 04:21:27;;;;;;;1.97;1.70;;;13.90;97.30;;;;;;4974055;28;20257;-89
2022/08/30 04:23:53;;;;;;;3.10;1.80;;;13.90;97.30;;;;;;4976124;28;20211;-87
2022/08/30 04:26:19;;;;;;;3.47;2.10;;;13.80;97.30;;;;;;4991779;28;20187;-87
2022/08/30 04:28:44;;;;;;;2.33;1.93;;;13.80;97.30;;;;;;5006666;28;20265;-88
2022/08/30 04:31:13;;;;;;;4.53;2.53;;;13.80;97.30;;;;;;5006602;28;20202;-88
2022/08/30 04:33:39;;;;;;;3.77;1.97;;;13.90;97.30;;;;;;5013163;28;20535;-87
2022/08/30 04:36:07;;;;;;;4.13;2.77;;;13.90;97.30;;;;;;4975327;28;20842;-87
2022/08/30 04:38:34;;;;;;;1.83;1.70;;;13.90;97.30;;;;;;5013977;28;20441;-87
2022/08/30 04:41:00;;;;;;;3.83;2.43;;;13.90;97.30;;;;;;4980210;28;20442;-87
2022/08/30 04:43:26;;;;;;;2.77;2.57;;;13.90;97.30;;;;;;5010613;28;20432;-87
2022/08/30 04:45:53;;;;;;;2.20;2.00;;;13.90;97.30;;;;;;5008027;28;20171;-88
2022/08/30 04:48:21;;;;;;;2.60;2.43;;;13.90;97.30;;;;;;5007279;28;20920;-88
2022/08/30 04:50:47;;;;;;;6.80;4.10;;;13.90;97.30;;;;;;5010769;28;20535;-88
2022/08/30 04:53:12;;;;;;;3.30;2.60;;;13.90;97.30;;;;;;4978353;28;20931;-88
2022/08/30 04:55:40;;;;;;;4.63;3.27;;;13.80;97.30;;;;;;4977586;28;20410;-87
2022/08/30 04:58:06;;;;;;;3.07;2.70;;;13.90;97.30;;;;;;4978496;28;20178;-87
2022/08/30 05:00:31;;;;;;;10.60;4.43;;;13.80;97.30;;;;;;5003045;23;20497;-90
2022/08/30 05:02:57;;;;;;;8.13;3.10;;;13.90;97.30;;;;;;4974480;28;20172;-90
2022/08/30 05:05:38;;;;;;;24.57;4.27;;;13.90;97.30;;;;;;4977605;28;20218;-90
2022/08/30 05:08:08;;;;;;;3.00;2.27;;;13.90;97.30;;;;;;4989251;28;20232;-90
2022/08/30 05:10:38;;;;;;;2.30;1.80;;;13.90;97.30;;;;;;4972876;28;20450;-90
2022/08/30 05:13:04;;;;;;;3.90;2.50;;;13.90;97.30;;;;;;4973514;28;20684;-90
2022/08/30 05:15:29;;;;;;;2.57;2.37;;;13.90;97.30;;;;;;4979444;28;20457;-90
2022/08/30 05:17:55;;;;;;;1.40;1.30;;;13.90;97.30;;;;;;4976746;28;20182;-90
2022/08/30 05:20:20;;;;;;;3.47;2.80;;;13.90;97.30;;;;;;4981005;28;20256;-90
2022/08/30 05:22:48;;;;;;;4.33;2.97;;;14.00;97.30;;;;;;4987848;28;20186;-90
2022/08/30 05:25:20;;;;;;;2.60;2.33;;;14.00;97.30;;;;;;4976008;28;20237;-90
2022/08/30 05:27:46;;;;;;;6.30;2.73;;;14.00;97.30;;;;;;4990620;28;20486;-90
2022/08/30 05:30:14;;;;;;;2.20;1.90;;;14.10;97.30;;;;;;4974993;28;20461;-91
2022/08/30 05:32:40;;;;;;;5.03;2.33;;;14.10;97.30;;;;;;4974899;28;20508;-90
2022/08/30 05:35:06;;;;;;;4.87;1.80;;;14.10;97.30;;;;;;4975221;28;20425;-90
2022/08/30 05:37:33;;;;;;;3.47;3.13;;;14.10;97.30;;;;;;4974566;28;20432;-89
2022/08/30 05:39:58;;;;;;;3.27;2.30;;;14.20;97.30;;;;;;4978879;28;20504;-90
2022/08/30 05:42:24;;;;;;;2.90;2.70;;;14.20;97.30;;;;;;4980524;28;20425;-90
2022/08/30 05:44:51;;;;;;;4.50;4.20;;;14.20;97.30;;;;;;4978203;28;20210;-90
2022/08/30 05:47:17;;;;;;;3.67;2.30;;;14.30;97.30;;;;;;4980701;28;20596;-90
2022/08/30 05:49:43;;;;;;;2.30;1.87;;;14.30;97.30;;;;;;4978049;28;20457;-91
2022/08/30 05:52:08;;;;;;;5.20;3.37;;;14.40;97.30;;;;;;4980482;28;20625;-90
2022/08/30 05:54:34;;;;;;;3.67;2.10;;;14.40;97.30;;;;;;4997031;28;20178;-93
2022/08/30 05:56:59;;;;;;;7.00;4.20;;;14.50;97.30;;;;;;4997377;28;20183;-93
2022/08/30 05:59:25;;;;;;;2.93;2.57;;;14.50;97.30;;;;;;4997362;28;20198;-92
2022/08/30 06:01:54;;;;;;;6.83;3.23;;;14.50;97.30;;;;;;4978971;28;20230;-90
2022/08/30 06:04:20;;;;;;;5.10;3.47;;;14.60;97.30;;;;;;4974060;28;20265;-91
2022/08/30 06:06:45;;;;;;;3.20;2.50;;;14.70;97.30;;;;;;4975490;28;20426;-91
2022/08/30 06:09:12;;;;;;;8.07;4.67;;;14.70;97.30;;;;;;4973680;28;20182;-90
2022/08/30 06:11:38;;;;;;;3.00;2.10;;;14.80;97.30;;;;;;4973985;28;20206;-90
2022/08/30 06:14:04;;;;;;;4.73;2.47;;;14.80;97.30;;;;;;4974132;28;20490;-90
2022/08/30 06:16:30;;;;;;;8.03;4.93;;;14.90;97.30;;;;;;4979338;28;20649;-90
2022/08/30 06:18:59;;;;;;;9.20;3.10;;;14.90;97.30;;;;;;4973124;28;20420;-90
2022/08/30 06:21:39;;;;;;;4.17;2.63;;;15.00;97.30;;;;;;4989847;28;20595;-91
2022/08/30 06:24:10;;;;;;;9.93;3.77;;;15.00;97.30;;;;;;4984948;28;20487;-90
2022/08/30 06:26:44;;;;;;;5.50;3.07;;;15.10;97.30;;;;;;4985712;28;20418;-90
2022/08/30 06:29:19;;;;;;;7.43;5.10;;;15.10;97.30;;;;;;4980303;28;20480;-90
2022/08/30 06:31:49;;;;;;;7.57;4.90;;;15.20;97.30;;;;;;4988721;28;20531;-90
2022/08/30 06:34:18;;;;;;;5.23;3.13;;;15.20;97.30;;;;;;4974032;28;20433;-90
2022/08/30 06:37:00;;;;;;;6.30;4.20;;;15.30;97.30;;;;;;4986703;28;20454;-91
2022/08/30 06:39:29;;;;;;;8.57;3.77;;;15.30;97.30;;;;;;4974246;28;20944;-88
2022/08/30 06:41:57;;;;;;;4.40;3.87;;;15.40;97.30;;;;;;4978261;28;20430;-91
2022/08/30 06:44:27;;;;;;;5.43;3.50;;;15.50;97.30;;;;;;4977246;28;20549;-92
2022/08/30 06:46:54;;;;;;;3.83;3.27;;;15.60;97.30;;;;;;4978386;28;20417;-91
2022/08/30 06:49:20;;;;;;;3.83;2.80;;;15.60;97.30;;;;;;4977553;28;20427;-91
2022/08/30 06:51:46;;;;;;;6.70;4.27;;;15.70;97.30;;;;;;4973259;28;20441;-90
2022/08/30 06:54:11;;;;;;;4.53;3.43;;;15.80;97.30;;;;;;4973328;28;20237;-90
2022/08/30 06:56:38;;;;;;;6.13;3.97;;;15.90;97.30;;;;;;4980073;28;20182;-91
2022/08/30 06:59:04;;;;;;;19.60;4.37;;;16.00;97.30;;;;;;4987880;28;20225;-90
2022/08/30 07:01:30;;;;;;;11.63;5.37;;;16.10;97.30;;;;;;4971732;28;20509;-91
2022/08/30 07:03:57;;;;;;;5.50;2.93;;;16.20;97.30;;;;;;4973695;28;20501;-91
2022/08/30 07:06:24;;;;;;;4.20;3.37;;;16.20;97.30;;;;;;4973657;28;20422;-90
2022/08/30 07:08:51;;;;;;;5.00;3.00;;;16.30;97.30;;;;;;4984687;28;20422;-91
2022/08/30 07:11:32;;;;;;;4.60;3.57;;;16.40;97.30;;;;;;4975336;28;20442;-91
2022/08/30 07:13:58;;;;;;;4.17;3.43;;;16.40;97.30;;;;;;4976693;28;20525;-90
2022/08/30 07:16:24;;;;;;;8.60;5.07;;;16.50;97.30;;;;;;4977277;28;20795;-91
2022/08/30 07:18:50;;;;;;;4.80;2.30;;;16.50;97.30;;;;;;4976185;28;20430;-90
2022/08/30 07:21:18;;;;;;;12.60;5.43;;;16.60;97.30;;;;;;4977091;28;21039;-91
2022/08/30 07:23:47;;;;;;;5.90;3.50;;;16.70;97.30;;;;;;4965203;28;20272;-90
2022/08/30 07:26:17;;;;;;;5.63;3.50;;;16.70;97.30;;;;;;4985001;28;20513;-91
2022/08/30 07:28:44;;;;;;;6.17;3.70;;;16.80;97.30;;;;;;4978724;28;20422;-90
2022/08/30 07:31:11;;;;;;;5.90;3.17;;;16.90;97.30;;;;;;4992316;28;20433;-90
2022/08/30 07:33:39;;;;;;;8.20;4.50;;;16.90;97.30;;;;;;4979146;28;20440;-91
2022/08/30 07:36:06;;;;;;;6.90;4.30;;;17.00;97.30;;;;;;4982474;28;20425;-90
2022/08/30 07:38:32;;;;;;;5.63;4.50;;;17.10;97.30;;;;;;4975896;28;20558;-89
2022/08/30 07:40:59;;;;;;;11.20;4.40;;;17.20;97.30;;;;;;4985426;28;20516;-90
2022/08/30 07:43:28;;;;;;;4.73;3.43;;;17.30;97.30;;;;;;4991632;28;20418;-89
2022/08/30 07:45:56;;;;;;;6.70;3.27;;;17.40;97.30;;;;;;4975825;28;20422;-89
2022/08/30 07:48:22;;;;;;;3.17;2.57;;;17.40;97.30;;;;;;4979476;28;20998;-90
2022/08/30 07:50:47;;;;;;;4.57;3.10;;;17.50;97.30;;;;;;4981740;28;20446;-91
2022/08/30 07:53:13;;;;;;;9.30;5.23;;;17.50;97.30;;;;;;4976026;28;20182;-91
2022/08/30 07:55:39;;;;;;;6.10;3.97;;;17.50;97.30;;;;;;4990872;28;20187;-91
2022/08/30 07:58:04;;;;;;;3.67;3.00;;;17.50;97.30;;;;;;4991547;28;20190;-90
2022/08/30 08:00:30;;;;;;;3.07;2.90;;;17.60;97.30;;;;;;4980789;28;20238;-91
2022/08/30 08:02:55;;;;;;;5.00;2.60;;;17.60;97.30;;;;;;4964020;28;20537;-92
2022/08/30 08:05:21;;;;;;;4.80;2.50;;;17.70;97.30;;;;;;4975463;28;20437;-90
2022/08/30 08:07:47;;;;;;;5.80;3.63;;;17.80;97.30;;;;;;4987450;28;20189;-91
2022/08/30 08:10:13;;;;;;;6.97;3.50;;;17.90;97.30;;;;;;4975858;28;20462;-90
2022/08/30 08:12:39;;;;;;;14.77;2.77;;;18.00;97.30;;;;;;4995847;28;20186;-91
2022/08/30 08:15:08;;;;;;;7.33;3.00;;;18.10;97.30;;;;;;4997058;28;20457;-93
2022/08/30 08:17:34;;;;;;;5.50;3.20;;;18.20;97.30;;;;;;4997280;28;20474;-91
2022/08/30 08:19:59;;;;;;;4.27;2.63;;;18.30;97.30;;;;;;4993125;28;20445;-90
2022/08/30 08:22:25;;;;;;;6.87;3.47;;;18.40;97.30;;;;;;4975735;28;20183;-90
2022/08/30 08:24:50;;;;;;;5.03;3.43;;;18.40;97.30;;;;;;4975103;28;20697;-91
2022/08/30 08:27:16;;;;;;;4.93;2.77;;;18.50;97.30;;;;;;4975305;28;20189;-91
2022/08/30 08:29:42;;;;;;;4.20;2.90;;;18.60;97.30;;;;;;4974100;28;20550;-91
2022/08/30 08:32:07;;;;;;;4.73;3.43;;;18.70;97.30;;;;;;4974495;28;20171;-90
2022/08/30 08:34:34;;;;;;;5.70;4.03;;;18.80;97.30;;;;;;4974298;28;20441;-91
2022/08/30 08:36:59;;;;;;;4.23;3.17;;;18.90;97.30;;;;;;4975064;28;20483;-91
2022/08/30 08:39:31;;;;;;;7.90;3.73;;;18.90;97.30;;;;;;4980217;28;20469;-91
2022/08/30 08:42:38;;;;;;;9.37;2.57;;;19.00;97.30;;;;;;4974281;28;20201;-91
2022/08/30 08:46:01;;;;;;;6.73;4.67;;;19.10;97.30;;;;;;4961754;28;20500;-90
2022/08/30 08:48:38;;;;;;;3.60;2.43;;;19.20;97.30;;;;;;4979618;28;20422;-90
2022/08/30 08:54:39;;;;;;;3.80;2.93;;;19.30;97.30;;;;;;4975884;28;20838;-90
2022/08/30 08:57:09;;;;;;;2.70;2.17;;;19.50;97.30;;;;;;4974524;28;20508;-91
2022/08/30 08:59:53;;;;;;;4.63;2.93;;;19.70;97.30;;;;;;4987525;28;20505;-91
2022/08/30 09:02:34;;;;;;;4.33;2.67;;;19.80;97.30;;;;;;4973989;28;20913;-91
2022/08/30 09:05:01;;;;;;;3.83;2.47;;;19.90;97.30;;;;;;4981656;28;20877;-90
2022/08/30 09:07:36;;;;;;;3.80;2.80;;;19.90;97.30;;;;;;4975998;28;20410;-91
2022/08/30 09:10:02;;;;;;;8.10;3.50;;;20.00;97.30;;;;;;4973729;28;20445;-91
2022/08/30 09:12:28;;;;;;;2.83;2.27;;;20.10;97.30;;;;;;4989756;28;20421;-91
2022/08/30 09:15:00;;;;;;;3.87;2.73;;;20.20;97.30;;;;;;4973690;28;20426;-91
2022/08/30 09:17:25;;;;;;;5.60;2.00;;;20.40;97.30;;;;;;4989891;28;20190;-91
2022/08/30 09:19:51;;;;;;;3.33;2.00;;;20.50;97.30;;;;;;4982755;28;20437;-91
2022/08/30 09:22:37;;;;;;;3.07;2.63;;;20.60;97.30;;;;;;4976778;28;20186;-91
2022/08/30 09:25:07;;;;;;;3.90;1.97;;;20.70;97.30;;;;;;4988880;28;20199;-91
2022/08/30 09:27:37;;;;;;;3.30;2.57;;;20.70;97.30;;;;;;4973610;28;20445;-91
2022/08/30 09:30:10;;;;;;;4.63;2.17;;;20.80;97.30;;;;;;4975818;28;20438;-91
2022/08/30 09:32:41;;;;;;;2.53;1.90;;;20.90;97.30;;;;;;4989380;28;20920;-91
2022/08/30 09:35:16;;;;;;;3.90;1.60;;;20.90;97.30;;;;;;4975391;28;20422;-91
2022/08/30 09:37:53;;;;;;;4.17;2.00;;;20.90;97.30;;;;;;4980808;28;20482;-91
2022/08/30 09:40:40;;;;;;;1.33;1.23;;;20.90;97.00;;;;;;4978330;28;20440;-91
2022/08/30 09:43:49;;;;;;;2.37;1.73;;;21.00;97.30;;;;;;4989176;28;20425;-91
2022/08/30 09:46:31;;;;;;;5.57;1.90;;;21.10;97.00;;;;;;4960453;28;20429;-91
2022/08/30 09:48:59;;;;;;;3.53;2.40;;;21.10;96.40;;;;;;4980549;28;20418;-90
2022/08/30 09:51:38;;;;;;;1.97;1.87;;;21.20;96.80;;;;;;4985951;28;20442;-92
2022/08/30 09:54:37;;;;;;;1.83;1.73;;;21.30;96.60;;;;;;4973524;28;20417;-91
2022/08/30 09:57:38;;;;;;;2.17;1.53;;;21.50;96.60;;;;;;4973530;28;20482;-91
2022/08/30 10:01:19;;;;;;;8.60;1.87;;;21.60;96.40;;;;;;4980003;28;20425;-91
2022/08/30 10:03:40;;;;;;;2.80;1.83;;;21.70;95.90;;;;;;4955052;28;20774;-91
2022/08/30 10:06:32;;;;;;;3.40;2.03;;;21.80;95.90;;;;;;4989421;28;20525;-92
2022/08/30 10:09:28;;;;;;;1.87;1.77;;;21.90;95.70;;;;;;4986308;28;20418;-91
2022/08/30 10:12:30;;;;;;;3.87;2.40;;;22.00;95.90;;;;;;4979027;28;20434;-92
2022/08/30 10:15:49;;;;;;;3.13;2.30;;;22.00;95.30;;;;;;4974113;28;20481;-92
2022/08/30 10:18:30;;;;;;;5.00;2.10;;;22.00;95.10;;;;;;4962139;28;20438;-94
2022/08/30 10:21:21;;;;;;;3.03;1.97;;;22.10;95.20;;;;;;5012127;28;20505;-92
2022/08/30 10:24:18;;;;;;;1.57;1.50;;;22.10;95.20;;;;;;4995580;28;20420;-92
2022/08/30 10:27:19;;;;;;;2.00;1.90;;;22.10;95.10;;;;;;4969954;28;20429;-90
2022/08/30 10:30:01;;;;;;;1.90;1.80;;;22.20;95.10;;;;;;4984236;28;20414;-91
2022/08/30 10:32:49;;;;;;;4.57;2.70;;;22.20;94.50;;;;;;4974216;28;20446;-92
2022/08/30 10:35:18;;;;;;;3.20;1.73;;;22.10;93.80;;;;;;4964884;28;20548;-92
2022/08/30 10:37:58;;;;;;;4.00;2.70;;;22.00;93.70;;;;;;4974114;28;20469;-92
2022/08/30 10:43:32;;;;;;;1.83;1.70;;;22.10;94.60;;;;;;4975839;28;20954;-92
2022/08/30 10:46:04;;;;;;;3.80;1.93;;;22.20;94.50;;;;;;4975782;28;20859;-92
2022/08/30 10:48:36;;;;;;;3.27;2.70;;;22.30;94.90;;;;;;4991656;28;20414;-92
2022/08/30 10:51:13;;;;;;;5.60;2.10;;;22.40;94.50;;;;;;4978553;28;20437;-92
2022/08/30 10:53:56;;;;;;;2.47;1.70;;;22.50;94.00;;;;;;4978210;28;20422;-92
2022/08/30 10:56:25;;;;;;;3.60;2.33;;;22.50;93.70;;;;;;4979931;28;20460;-91
2022/08/30 10:58:53;;;;;;;1.83;1.80;;;22.60;93.20;;;;;;4986536;28;20515;-91
2022/08/30 11:01:36;;;;;;;1.63;1.43;;;22.60;93.20;;;;;;4991246;28;20473;-91
2022/08/30 11:07:15;;;;;;;7.03;2.03;;;22.90;92.90;;;;;;4968746;28;20477;-88
2022/08/30 11:09:56;;;;;;;2.53;1.93;;;23.00;92.00;;;;;;4970995;28;20423;-87
2022/08/30 11:12:40;;;;;;;2.03;1.70;;;23.10;90.80;;;;;;4972362;28;20418;-86
2022/08/30 11:15:20;;;;;;;4.77;3.03;;;23.20;90.80;;;;;;4989450;28;20453;-87
2022/08/30 11:17:53;;;;;;;1.53;1.47;;;23.30;91.40;;;;;;4956576;28;20458;-87
2022/08/30 11:20:32;;;;;;;2.23;1.53;;;23.40;91.20;;;;;;4973866;28;20508;-88
2022/08/30 11:23:31;;;;;;;2.70;2.27;;;23.60;91.60;;;;;;4974893;28;20413;-87
2022/08/30 11:26:01;;;;;;;2.20;1.87;;;23.70;90.60;;;;;;4963817;28;20872;-87
2022/08/30 11:28:35;;;;;;;2.23;1.57;;;23.80;90.30;;;;;;4977269;28;20776;-87
2022/08/30 11:31:19;;;;;;;6.33;1.77;;;23.80;90.30;;;;;;4973903;28;20417;-88
2022/08/30 11:33:49;;;;;;;2.30;1.50;;;23.70;88.70;;;;;;4973721;28;20430;-87
2022/08/30 11:36:31;;;;;;;2.23;1.47;;;23.80;89.50;;;;;;4983831;28;20449;-87
2022/08/30 11:38:59;;;;;;;1.60;1.40;;;23.90;88.50;;;;;;4974857;28;20422;-87
2022/08/30 11:41:36;;;;;;;1.27;1.20;;;23.80;87.90;;;;;;4973283;28;20471;-87
2022/08/30 11:44:11;;;;;;;3.57;2.67;;;23.70;89.50;;;;;;4973304;28;20576;-87
2022/08/30 11:46:40;;;;;;;3.47;2.53;;;23.60;90.40;;;;;;4974516;28;20506;-87
2022/08/30 11:49:14;;;;;;;3.17;2.00;;;23.40;91.30;;;;;;4974575;28;20418;-86
2022/08/30 11:51:42;;;;;;;4.57;2.50;;;23.20;91.90;;;;;;4973614;28;20912;-87
2022/08/30 11:54:29;;;;;;;2.90;2.70;;;23.10;92.40;;;;;;4974510;28;20433;-87
2022/08/30 11:57:04;;;;;;;3.83;1.97;;;23.00;92.90;;;;;;4972449;28;20413;-86
2022/08/30 11:59:50;;;;;;;3.03;2.20;;;22.90;93.20;;;;;;4973588;28;20998;-87
2022/08/30 12:02:41;;;;;;;1.70;1.60;;;22.90;94.40;;;;;;4962796;28;20496;-87
2022/08/30 12:05:07;;;;;;;4.00;1.60;;;22.80;94.20;;;;;;4973375;28;20573;-86
2022/08/30 12:07:59;;;;;;;1.97;1.50;;;22.70;94.80;;;;;;4972897;28;20520;-86
2022/08/30 12:10:44;;;;;;;1.70;1.53;;;22.60;95.00;;;;;;4962986;28;20182;-86
2022/08/30 12:13:35;;;;;;;3.13;2.03;;;22.60;95.00;;;;;;4985648;28;20426;-86
2022/08/30 12:16:19;;;;;;;1.93;1.73;;;22.60;95.40;;;;;;4972567;28;20514;-88
2022/08/30 12:18:55;;;;;;;2.93;2.47;;;22.60;95.10;;;;;;4965080;28;20422;-87
2022/08/30 12:21:21;;;;;;;2.07;1.90;;;22.60;95.10;;;;;;4971477;28;20425;-86
2022/08/30 12:24:07;;;;;;;3.37;1.47;;;22.60;94.90;;;;;;4972398;28;20430;-87
2022/08/30 12:26:36;;;;;;;2.87;1.90;;;22.70;95.10;;;;;;4959972;28;20186;-87
2022/08/30 12:29:10;;;;;;;2.73;1.70;;;22.80;95.50;;;;;;4974032;28;20425;-87
2022/08/30 12:31:50;;;;;;;2.40;2.20;;;22.90;94.50;;;;;;4977102;28;20413;-86
2022/08/30 12:34:21;;;;;;;1.50;1.40;;;23.00;94.50;;;;;;4975100;28;20445;-86
2022/08/30 12:37:10;;;;;;;4.67;2.57;;;23.00;94.50;;;;;;4973705;28;20424;-87
2022/08/30 12:39:41;;;;;;;2.27;1.50;;;23.00;94.50;;;;;;4976251;28;20468;-87
2022/08/30 12:42:21;;;;;;;1.77;1.73;;;23.20;95.40;;;;;;4976905;28;20448;-86
2022/08/30 12:44:49;;;;;;;2.93;1.87;;;23.40;94.80;;;;;;4972653;28;20466;-87
2022/08/30 12:47:20;;;;;;;1.67;1.50;;;23.70;93.80;;;;;;4973352;28;20421;-87
2022/08/30 12:49:49;;;;;;;2.57;2.37;;;23.90;93.10;;;;;;4971971;28;20418;-86
2022/08/30 12:52:30;;;;;;;2.87;2.17;;;24.10;93.10;;;;;;4972902;28;20414;-86
2022/08/30 12:55:09;;;;;;;2.83;1.63;;;24.20;92.90;;;;;;4972313;28;20732;-85
2022/08/30 12:57:36;;;;;;;2.20;1.60;;;24.20;92.30;;;;;;4961745;28;20442;-86
2022/08/30 13:00:05;;;;;;;3.00;1.97;;;24.30;92.40;;;;;;4987029;28;20430;-86
2022/08/30 13:02:44;;;;;;;2.43;1.67;;;24.50;92.70;;;;;;4972232;28;20414;-87
2022/08/30 13:05:38;;;;;;;3.10;1.73;;;24.60;92.10;;;;;;4973213;28;20481;-86
2022/08/30 13:08:21;;;;;;;2.83;1.73;;;24.70;91.90;;;;;;4985331;28;20422;-87
2022/08/30 13:10:56;;;;;;;1.50;1.40;;;24.90;91.90;;;;;;4973881;28;20477;-86
2022/08/30 13:13:50;;;;;;;4.00;2.43;;;24.90;90.70;;;;;;4974310;28;20947;-86
2022/08/30 13:16:21;;;;;;;1.93;1.83;;;24.70;90.20;;;;;;4976986;28;20450;-86